Главная страница
METAR-TAF:

METAR-TAF

Аэропорты :

Джуно, Аляска, США

широта: 58-21-17N, долгота: 134-34-34W, высота над уровнем моря: 6 м

Текущие метеонаблюдения

Эта сводка был подготовлена 14 минут назад, в 18:53 UTC
Ветер 3 Узел переменных направлений
Температура 11°C
Влажность 62%
Давление 1019 hPa
Видимость: 16.1 км
Рассеянная облачность на высоте 23000 фута

METAR: PAJN 201853Z VRB03KT 10SM BKN230 11/04 A3009 RMK AO2 SLP190 T01110039

Время: 11:07 (19:07 UTC)

Прогноз

Эта сводка был подготовлена 1 час и 25 минут назад, в 17:42 UTC
Прогноз действительный с 20-го 18 UTC до 21-го 18 UTC
Ветер 8 Узел от западный-юго-западный
Видимость: 10 км
Отдельные облака на высоте 10000 фута
С 21-го 1000 UTC
Ветер 2 Узел переменных направлений
Видимость: 10 км
небольшая облачность на высоте 100 фута
клочья тумана

TAF: PAJN 201742Z 2018/2118 24008KT P6SM SCT100 FM211000 VRB02KT P6SM BCFG FEW001

Метеонаблюдения и прогнозы для более 4000 аэропортов (сводки METAR и TAF).

Имеющиеся станции представлены на карте желтыми и красными точками.

Чтобы увидеть название станции, наведите на нее мышь.

Затем щелкните, чтобы увидеть метеонаблюдения и метеопрогнозы.

Управление картой: чтобы увеличить масштаб, щелкните зеленые кнопки с черным крестиком; чтобы уменьшить масштаб, щелкните зеленую кнопку с тире; для просмотра соседних карт щелкайте зеленые стрелки.


METAR-TAF: